createdAt,value
2023-01-17T00:02:20.883Z,10.02
2023-01-17T00:07:53.603Z,6.57
2023-01-17T00:10:26.142Z,8.52
2023-01-17T00:13:02.480Z,9.02
2023-01-17T00:15:31.856Z,7.40
2023-01-17T00:17:59.843Z,6.22
2023-01-17T00:20:49.625Z,6.85
2023-01-17T00:26:18.154Z,4.85
2023-01-17T00:28:47.414Z,5.88
2023-01-17T00:33:44.803Z,4.50
2023-01-17T00:36:13.347Z,4.80
2023-01-17T00:38:41.350Z,6.82
2023-01-17T00:41:15.135Z,5.13
2023-01-17T00:44:01.286Z,8.40
2023-01-17T00:46:47.764Z,6.20
2023-01-17T00:49:33.965Z,6.95
2023-01-17T00:52:20.575Z,5.25
2023-01-17T00:55:07.014Z,6.38
2023-01-17T00:57:53.881Z,6.15
2023-01-17T01:00:40.039Z,6.25
2023-01-17T01:03:30.674Z,5.80
2023-01-17T01:06:16.936Z,4.72
2023-01-17T01:09:03.718Z,5.38
2023-01-17T01:11:50.129Z,5.50
2023-01-17T01:14:36.797Z,8.05
2023-01-17T01:17:23.113Z,4.32
2023-01-17T01:20:09.784Z,8.48
2023-01-17T01:22:56.235Z,5.47
2023-01-17T01:25:42.915Z,5.90
2023-01-17T01:28:32.226Z,3.45
2023-01-17T01:31:20.924Z,3.67
2023-01-17T01:33:48.709Z,3.75
2023-01-17T01:36:16.712Z,4.28
2023-01-17T01:38:44.246Z,6.32
2023-01-17T01:41:12.418Z,4.85
2023-01-17T01:43:49.870Z,6.93
2023-01-17T01:46:35.374Z,5.43
2023-01-17T01:49:21.428Z,8.25
2023-01-17T01:51:55.827Z,3.75
2023-01-17T01:54:35.715Z,6.18
2023-01-17T01:57:08.750Z,3.70
2023-01-17T01:59:42.582Z,4.38
2023-01-17T02:02:10.945Z,5.18
2023-01-17T02:04:39.144Z,4.53
2023-01-17T02:07:24.068Z,3.33
2023-01-17T02:09:53.134Z,3.30
2023-01-17T02:12:22.249Z,4.47
2023-01-17T02:14:49.932Z,3.80
2023-01-17T02:17:45.287Z,3.80
2023-01-17T02:20:48.584Z,2.97
2023-01-17T02:23:28.151Z,3.30
2023-01-17T02:26:10.684Z,4.65
2023-01-17T02:29:10.914Z,3.55
2023-01-17T02:32:20.814Z,4.07
2023-01-17T02:35:13.718Z,4.05
2023-01-17T02:38:21.639Z,3.65
2023-01-17T02:41:00.978Z,3.17
2023-01-17T02:43:28.972Z,4.78
2023-01-17T02:45:56.879Z,3.78
2023-01-17T02:48:31.476Z,4.25
2023-01-17T02:51:18.195Z,3.78
2023-01-17T02:54:28.489Z,3.70
2023-01-17T02:57:24.664Z,6.63
2023-01-17T03:00:20.789Z,4.10
2023-01-17T03:03:10.652Z,3.80
2023-01-17T03:09:21.295Z,3.85
2023-01-17T03:11:49.444Z,3.35
2023-01-17T03:14:17.032Z,5.65
2023-01-17T03:16:45.304Z,3.22
2023-01-17T03:19:14.807Z,3.42
2023-01-17T03:21:43.046Z,4.38
2023-01-17T03:24:10.716Z,4.00
2023-01-17T03:26:38.710Z,3.97
2023-01-17T03:29:06.260Z,3.30
2023-01-17T03:31:34.296Z,3.50
2023-01-17T03:34:02.369Z,5.40
2023-01-17T03:36:30.352Z,4.22
2023-01-17T03:38:58.014Z,4.07
2023-01-17T03:41:25.928Z,3.47
2023-01-17T03:43:53.587Z,3.67
2023-01-17T03:46:28.677Z,3.83
2023-01-17T03:49:15.184Z,6.07
2023-01-17T03:51:43.238Z,4.15
2023-01-17T03:54:10.895Z,2.92
2023-01-17T03:56:38.748Z,3.50
2023-01-17T03:59:06.324Z,2.72
2023-01-17T04:01:34.548Z,6.68
2023-01-17T04:04:02.222Z,3.38
2023-01-17T04:06:30.204Z,2.22
2023-01-17T04:08:57.912Z,4.53
2023-01-17T04:11:25.874Z,4.18
2023-01-17T04:13:54.223Z,5.93
2023-01-17T04:16:24.431Z,2.53
2023-01-17T04:18:52.294Z,2.88
2023-01-17T04:21:20.667Z,3.97
2023-01-17T04:23:48.264Z,2.40
2023-01-17T04:26:16.432Z,3.38
2023-01-17T04:28:43.974Z,2.20
2023-01-17T04:31:17.417Z,3.35
2023-01-17T04:33:45.298Z,4.57
2023-01-17T04:36:13.199Z,6.10
2023-01-17T04:38:40.695Z,4.07
2023-01-17T04:41:08.674Z,5.85
2023-01-17T04:43:36.348Z,5.10
2023-01-17T04:46:09.990Z,3.78
2023-01-17T04:48:38.396Z,6.05
2023-01-17T04:51:06.800Z,3.00
2023-01-17T04:53:34.366Z,5.47
2023-01-17T04:56:02.447Z,5.05
2023-01-17T04:58:30.892Z,6.25
2023-01-17T05:01:04.231Z,4.78
2023-01-17T05:03:32.670Z,5.75
2023-01-17T05:06:01.891Z,4.68
2023-01-17T05:08:29.653Z,4.65
2023-01-17T05:10:57.690Z,4.38
2023-01-17T05:13:25.388Z,4.95
2023-01-17T05:15:53.453Z,3.72
2023-01-17T05:18:21.187Z,9.05
2023-01-17T05:20:49.141Z,9.20
2023-01-17T05:23:17.120Z,7.20
2023-01-17T05:25:45.243Z,7.45
2023-01-17T05:28:13.959Z,4.22
2023-01-17T05:30:41.877Z,2.45
2023-01-17T05:33:10.521Z,2.95
2023-01-17T05:35:38.518Z,0.88
2023-01-17T05:38:06.256Z,1.23
2023-01-17T05:40:34.840Z,5.18
2023-01-17T05:43:03.936Z,1.33
2023-01-17T05:45:33.652Z,0.52
2023-01-17T05:48:02.237Z,1.88
2023-01-17T05:50:35.028Z,0.55
2023-01-17T05:53:10.603Z,1.38
2023-01-17T05:55:40.300Z,0.60
2023-01-17T05:58:14.088Z,0.80
2023-01-17T06:00:42.500Z,1.15
2023-01-17T06:03:10.678Z,3.50
2023-01-17T06:05:38.937Z,0.40
2023-01-17T06:08:07.218Z,0.40
2023-01-17T06:10:35.655Z,3.30
2023-01-17T06:13:05.667Z,3.42
2023-01-17T06:15:35.618Z,4.03
2023-01-17T06:18:12.981Z,5.45
2023-01-17T06:20:41.421Z,6.80
2023-01-17T06:23:13.517Z,6.68
2023-01-17T06:25:46.165Z,5.07
2023-01-17T06:28:20.919Z,4.00
2023-01-17T06:30:49.419Z,2.03
2023-01-17T06:33:17.662Z,3.00
2023-01-17T06:35:53.148Z,2.58
2023-01-17T06:38:21.548Z,10.07
2023-01-17T06:40:49.421Z,9.52
2023-01-17T06:43:17.525Z,10.10
2023-01-17T06:45:45.226Z,2.22
2023-01-17T06:48:13.175Z,2.50
2023-01-17T06:50:40.849Z,8.70
2023-01-17T06:53:10.121Z,8.75
2023-01-17T06:55:40.434Z,5.90
2023-01-17T06:58:10.061Z,2.42
2023-01-17T07:00:40.525Z,2.63
2023-01-17T07:03:24.533Z,1.90
2023-01-17T07:05:53.229Z,1.90
2023-01-17T07:08:21.247Z,1.90
2023-01-17T07:10:49.519Z,1.20
2023-01-17T07:13:17.555Z,4.80
2023-01-17T07:15:45.442Z,2.25
2023-01-17T07:18:13.414Z,1.63
2023-01-17T07:20:43.930Z,1.75
2023-01-17T07:23:12.042Z,4.72
2023-01-17T07:25:39.758Z,3.42
2023-01-17T07:28:07.987Z,2.53
2023-01-17T07:30:36.722Z,2.85
2023-01-17T07:33:04.798Z,2.38
2023-01-17T07:35:32.427Z,2.00
2023-01-17T07:38:00.531Z,5.20
2023-01-17T07:40:28.293Z,4.72
2023-01-17T07:43:02.449Z,3.70
2023-01-17T07:45:30.223Z,5.05
2023-01-17T07:47:58.503Z,11.77
2023-01-17T07:50:26.279Z,5.60
2023-01-17T07:52:54.426Z,3.33
2023-01-17T07:55:22.155Z,3.20
2023-01-17T07:57:51.070Z,6.95
2023-01-17T08:00:19.738Z,9.80
2023-01-17T08:02:47.727Z,7.13
2023-01-17T08:05:16.214Z,4.53
2023-01-17T08:07:44.622Z,3.05
2023-01-17T08:10:16.969Z,3.67
2023-01-17T08:12:49.994Z,3.50
2023-01-17T08:15:19.358Z,5.38
2023-01-17T08:17:54.319Z,3.42
2023-01-17T08:20:22.185Z,5.38
2023-01-17T08:22:56.858Z,7.43
2023-01-17T08:25:26.556Z,6.40
2023-01-17T08:27:58.406Z,6.88
2023-01-17T08:30:27.418Z,8.50
2023-01-17T08:32:55.766Z,4.22
2023-01-17T08:35:24.001Z,2.40
2023-01-17T08:37:55.788Z,2.47
2023-01-17T08:40:24.415Z,7.50
2023-01-17T08:43:00.904Z,7.05
2023-01-17T08:45:29.327Z,10.82
2023-01-17T08:47:59.198Z,13.98
2023-01-17T08:50:27.609Z,14.38
2023-01-17T08:53:01.286Z,20.53
2023-01-17T08:55:29.256Z,14.00
2023-01-17T08:57:57.559Z,14.88
2023-01-17T09:00:25.926Z,19.65
2023-01-17T09:02:54.283Z,27.63
2023-01-17T09:05:22.454Z,35.78
2023-01-17T09:07:50.538Z,30.17
2023-01-17T09:10:18.500Z,29.38
2023-01-17T09:12:46.830Z,28.92
2023-01-17T09:15:18.087Z,25.15
2023-01-17T09:17:47.894Z,25.98
2023-01-17T09:20:16.041Z,26.02
2023-01-17T09:23:01.572Z,31.08
2023-01-17T09:25:32.208Z,24.05
2023-01-17T09:28:00.640Z,24.20
2023-01-17T09:30:29.548Z,24.10
2023-01-17T09:32:57.635Z,32.03
2023-01-17T09:35:25.559Z,25.88
2023-01-17T09:37:55.297Z,19.70
2023-01-17T09:40:27.915Z,16.80
2023-01-17T09:43:11.562Z,16.33
2023-01-17T09:45:39.707Z,15.57
2023-01-17T09:48:17.958Z,15.70
2023-01-17T09:51:07.623Z,16.27
2023-01-17T09:53:39.399Z,15.73
2023-01-17T09:56:29.894Z,15.27
2023-01-17T09:59:35.619Z,9.02
2023-01-17T10:02:39.623Z,6.60
2023-01-17T10:05:56.490Z,7.13
2023-01-17T10:08:52.693Z,5.88
2023-01-17T10:12:00.720Z,4.28
2023-01-17T10:15:07.309Z,5.57
2023-01-17T10:17:50.959Z,4.55
2023-01-17T10:20:45.008Z,6.50
2023-01-17T10:23:44.548Z,5.03
2023-01-17T10:26:24.572Z,9.30
2023-01-17T10:28:58.679Z,7.90
2023-01-17T10:31:40.194Z,8.80
2023-01-17T10:34:37.814Z,7.22
2023-01-17T10:37:29.857Z,7.72
2023-01-17T10:40:10.592Z,9.80
2023-01-17T10:42:52.420Z,10.15
2023-01-17T10:45:28.915Z,10.25
2023-01-17T10:48:27.905Z,6.40
2023-01-17T10:51:27.297Z,7.75
2023-01-17T10:54:27.958Z,7.47
2023-01-17T10:56:55.924Z,7.07
2023-01-17T10:59:32.075Z,7.18
2023-01-17T11:02:07.517Z,6.75
2023-01-17T11:04:43.132Z,8.75
2023-01-17T11:07:20.387Z,9.73
2023-01-17T11:09:51.954Z,7.95
2023-01-17T11:12:30.165Z,9.23
2023-01-17T11:15:17.902Z,7.43
2023-01-17T11:18:17.205Z,7.10
2023-01-17T11:20:46.100Z,6.95
2023-01-17T11:23:33.505Z,7.05
2023-01-17T11:26:03.578Z,6.10
2023-01-17T11:28:34.283Z,8.23
2023-01-17T11:31:22.872Z,7.13
2023-01-17T11:34:06.267Z,7.20
2023-01-17T11:36:34.192Z,8.38
2023-01-17T11:39:18.534Z,8.93
2023-01-17T11:41:47.940Z,13.50
2023-01-17T11:44:26.062Z,15.77
2023-01-17T11:47:14.607Z,15.00
2023-01-17T11:49:48.041Z,14.93
2023-01-17T11:52:31.976Z,15.50
2023-01-17T11:54:59.971Z,14.02
2023-01-17T11:57:32.869Z,18.17
2023-01-17T12:00:40.639Z,14.93
2023-01-17T12:03:42.702Z,19.15
2023-01-17T12:06:58.355Z,15.93
2023-01-17T12:09:40.205Z,14.55
2023-01-17T12:12:52.233Z,19.52
2023-01-17T12:15:47.632Z,13.05
2023-01-17T12:18:49.868Z,16.45
2023-01-17T12:21:34.286Z,14.43
2023-01-17T12:24:16.806Z,14.43
2023-01-17T12:27:12.810Z,15.30
2023-01-17T12:30:10.546Z,15.98
2023-01-17T12:33:10.961Z,19.40
2023-01-17T12:36:17.695Z,19.15
2023-01-17T12:38:48.742Z,22.20
2023-01-17T12:41:31.714Z,24.50
2023-01-17T12:44:11.657Z,24.13
2023-01-17T12:47:02.960Z,25.08
2023-01-17T12:49:46.158Z,22.45
2023-01-17T12:52:40.270Z,20.55
2023-01-17T12:55:19.679Z,16.20
2023-01-17T12:57:57.309Z,19.85
2023-01-17T13:00:29.873Z,11.80
2023-01-17T13:03:29.754Z,16.05
2023-01-17T13:06:00.496Z,14.20
2023-01-17T13:08:44.227Z,14.10
2023-01-17T13:11:46.850Z,14.85
2023-01-17T13:14:14.688Z,10.75
2023-01-17T13:17:37.360Z,14.23
2023-01-17T13:20:31.829Z,15.52
2023-01-17T13:23:28.428Z,20.23
2023-01-17T13:25:59.508Z,29.50
2023-01-17T13:28:58.081Z,20.77
2023-01-17T13:31:48.037Z,21.63
2023-01-17T13:34:21.288Z,22.48
2023-01-17T13:37:41.050Z,21.42
2023-01-17T13:40:22.585Z,21.45
2023-01-17T13:43:04.722Z,19.83
2023-01-17T13:45:39.199Z,18.08
2023-01-17T13:48:12.790Z,21.00
2023-01-17T13:50:53.074Z,22.10
2023-01-17T13:53:33.000Z,20.77
2023-01-17T13:56:18.702Z,22.60
2023-01-17T13:58:50.428Z,19.48
2023-01-17T14:01:24.194Z,22.20
2023-01-17T14:03:52.055Z,15.27
2023-01-17T14:06:41.708Z,21.00
2023-01-17T14:09:39.763Z,20.98
2023-01-17T14:12:16.318Z,17.85
2023-01-17T14:14:49.689Z,19.20
2023-01-17T14:17:23.181Z,18.83
2023-01-17T14:20:19.324Z,18.80
2023-01-17T14:22:57.490Z,18.40
2023-01-17T14:25:30.098Z,19.08
2023-01-17T14:28:06.448Z,18.35
2023-01-17T14:30:38.139Z,24.30
2023-01-17T14:33:20.063Z,20.42
2023-01-17T14:36:01.247Z,18.15
2023-01-17T14:38:34.611Z,18.60
2023-01-17T14:41:07.999Z,17.73
2023-01-17T14:43:46.915Z,15.75
2023-01-17T14:46:33.546Z,19.80
2023-01-17T14:49:17.866Z,24.17
2023-01-17T14:52:04.574Z,19.13
2023-01-17T14:54:32.673Z,19.67
2023-01-17T14:57:29.526Z,18.77
2023-01-17T15:00:38.385Z,26.13
2023-01-17T15:03:12.796Z,20.15
2023-01-17T15:05:48.562Z,31.00
2023-01-17T15:08:20.523Z,17.27
2023-01-17T15:11:05.733Z,24.08
2023-01-17T15:13:49.889Z,19.75
2023-01-17T15:16:23.274Z,22.05
2023-01-17T15:18:53.906Z,27.92
2023-01-17T15:21:28.142Z,31.33
2023-01-17T15:24:08.990Z,27.40
2023-01-17T15:26:43.746Z,30.70
2023-01-17T15:29:32.524Z,26.30
2023-01-17T15:32:05.885Z,18.83
2023-01-17T15:34:43.790Z,18.83
2023-01-17T15:37:43.816Z,18.98
2023-01-17T15:40:20.538Z,26.02
2023-01-17T15:42:58.832Z,23.25
2023-01-17T15:45:32.826Z,16.80
2023-01-17T15:48:42.265Z,19.70
2023-01-17T15:51:13.003Z,23.35
2023-01-17T15:53:42.845Z,24.50
2023-01-17T15:56:31.938Z,23.85
2023-01-17T15:59:46.511Z,25.45
2023-01-17T16:02:32.755Z,18.10
2023-01-17T16:05:21.833Z,20.90
2023-01-17T16:07:58.324Z,16.25
2023-01-17T16:10:28.980Z,23.30
2023-01-17T16:12:56.915Z,15.48
2023-01-17T16:15:28.825Z,18.33
2023-01-17T16:18:02.833Z,14.93
2023-01-17T16:20:48.941Z,21.40
2023-01-17T16:23:17.327Z,16.65
2023-01-17T16:25:46.300Z,19.88
2023-01-17T16:30:41.993Z,13.52
2023-01-17T16:33:13.522Z,14.32
2023-01-17T16:35:43.077Z,16.42
2023-01-17T16:38:15.510Z,17.90
2023-01-17T16:40:45.765Z,16.92
2023-01-17T16:43:16.842Z,15.52
2023-01-17T16:45:50.127Z,13.50
2023-01-17T16:48:19.437Z,13.85
2023-01-17T16:50:53.390Z,16.85
2023-01-17T16:53:25.403Z,15.45
2023-01-17T16:55:58.068Z,21.00
2023-01-17T16:58:30.091Z,15.38
2023-01-17T17:00:57.824Z,16.20
2023-01-17T17:03:25.734Z,19.45
2023-01-17T17:05:59.749Z,24.35
2023-01-17T17:08:29.590Z,24.45
2023-01-17T17:13:44.781Z,17.35
2023-01-17T17:16:19.899Z,22.25
2023-01-17T17:19:08.150Z,22.85
2023-01-17T17:21:38.502Z,21.88
2023-01-17T17:24:08.861Z,20.15
2023-01-17T17:26:38.712Z,17.15
2023-01-17T17:29:13.436Z,15.18
2023-01-17T17:31:55.889Z,20.17
2023-01-17T17:34:29.417Z,29.95
2023-01-17T17:36:57.245Z,20.20
2023-01-17T17:39:29.392Z,16.88
2023-01-17T17:42:00.533Z,23.70
2023-01-17T17:44:31.326Z,19.48
2023-01-17T17:47:02.570Z,15.80
2023-01-17T17:49:41.187Z,15.65
2023-01-17T17:52:13.101Z,17.33
2023-01-17T17:54:44.190Z,20.05
2023-01-17T17:57:16.357Z,17.38
2023-01-17T17:59:56.961Z,17.20
2023-01-17T18:02:30.291Z,30.58
2023-01-17T18:05:03.186Z,21.38
2023-01-17T18:07:36.021Z,26.77
2023-01-17T18:10:11.946Z,35.08
2023-01-17T18:12:42.684Z,29.55
2023-01-17T18:15:15.260Z,21.83
2023-01-17T18:18:05.473Z,17.42
2023-01-17T18:20:36.804Z,26.83
2023-01-17T18:23:06.998Z,23.27
2023-01-17T18:25:41.631Z,19.48
2023-01-17T18:28:13.720Z,16.25
2023-01-17T18:30:44.851Z,19.88
2023-01-17T18:33:14.044Z,16.63
2023-01-17T18:35:55.767Z,13.88
2023-01-17T18:38:29.661Z,16.58
2023-01-17T18:41:09.313Z,11.23
2023-01-17T18:43:41.485Z,19.98
2023-01-17T18:46:13.849Z,14.52
2023-01-17T18:48:44.233Z,8.63
2023-01-17T18:51:18.505Z,13.73
2023-01-17T18:53:48.585Z,12.95
2023-01-17T18:56:25.010Z,9.50
2023-01-17T18:58:58.866Z,13.52
2023-01-17T19:01:35.349Z,12.52
2023-01-17T19:04:10.534Z,13.98
2023-01-17T19:06:50.386Z,8.32
2023-01-17T19:09:24.866Z,15.23
2023-01-17T19:12:01.662Z,13.63
2023-01-17T19:14:35.357Z,10.50
2023-01-17T19:17:09.652Z,10.48
2023-01-17T19:19:41.326Z,8.43
2023-01-17T19:22:12.040Z,14.93
2023-01-17T19:24:44.219Z,17.17
2023-01-17T19:27:14.406Z,14.68
2023-01-17T19:29:46.827Z,12.05
2023-01-17T19:32:16.851Z,9.43
2023-01-17T19:34:46.988Z,11.35
2023-01-17T19:37:15.408Z,12.55
2023-01-17T19:39:43.774Z,13.95
2023-01-17T19:42:16.401Z,14.40
2023-01-17T19:44:44.186Z,10.95
2023-01-17T19:47:12.319Z,8.93
2023-01-17T19:49:41.419Z,5.95
2023-01-17T19:52:09.357Z,8.65
2023-01-17T19:54:37.383Z,10.77
2023-01-17T19:57:05.480Z,9.38
2023-01-17T19:59:33.127Z,7.43
2023-01-17T20:02:01.404Z,7.68
2023-01-17T20:04:29.262Z,7.00
2023-01-17T20:06:57.097Z,6.28
2023-01-17T20:09:25.191Z,3.97
2023-01-17T20:11:53.563Z,7.45
2023-01-17T20:14:21.861Z,8.32
2023-01-17T20:16:51.436Z,3.67
2023-01-17T20:19:22.219Z,4.47
2023-01-17T20:21:50.105Z,6.68
2023-01-17T20:24:17.701Z,4.30
2023-01-17T20:26:46.059Z,7.13
2023-01-17T20:29:16.885Z,5.90
2023-01-17T20:31:46.093Z,4.40
2023-01-17T20:34:18.792Z,5.18
2023-01-17T20:36:47.615Z,9.68
2023-01-17T20:39:15.891Z,3.97
2023-01-17T20:41:46.303Z,8.23
2023-01-17T20:44:15.642Z,5.78
2023-01-17T20:46:43.970Z,6.82
2023-01-17T20:49:44.395Z,11.45
2023-01-17T20:52:15.351Z,4.32
2023-01-17T20:54:43.375Z,4.45
2023-01-17T20:57:11.551Z,4.47
2023-01-17T20:59:39.079Z,3.03
2023-01-17T21:02:10.690Z,2.88
2023-01-17T21:04:38.638Z,5.10
2023-01-17T21:07:06.851Z,4.80
2023-01-17T21:09:34.493Z,5.63
2023-01-17T21:12:02.541Z,4.10
2023-01-17T21:14:30.380Z,5.35
2023-01-17T21:16:58.587Z,3.78
2023-01-17T21:19:26.692Z,2.88
2023-01-17T21:21:56.333Z,5.00
2023-01-17T21:24:24.564Z,3.35
2023-01-17T21:26:53.066Z,6.75
2023-01-17T21:29:20.638Z,14.65
2023-01-17T21:31:48.667Z,9.32
2023-01-17T21:34:16.341Z,5.82
2023-01-17T21:36:45.341Z,5.97
2023-01-17T21:39:17.387Z,7.20
2023-01-17T21:41:49.684Z,8.48
2023-01-17T21:44:23.072Z,4.10
2023-01-17T21:46:54.293Z,11.15
2023-01-17T21:49:22.867Z,5.82
2023-01-17T21:51:53.430Z,4.28
2023-01-17T21:54:45.737Z,8.10
2023-01-17T21:57:37.479Z,4.53
2023-01-17T22:00:09.247Z,5.20
2023-01-17T22:02:41.178Z,3.45
2023-01-17T22:05:10.531Z,5.07
2023-01-17T22:10:29.043Z,4.18
2023-01-17T22:12:57.754Z,3.33
2023-01-17T22:15:25.377Z,4.53
2023-01-17T22:17:53.234Z,5.55
2023-01-17T22:20:21.465Z,5.13
2023-01-17T22:22:49.389Z,6.57
2023-01-17T22:25:16.990Z,8.63
2023-01-17T22:27:44.799Z,3.63
2023-01-17T22:30:13.191Z,6.78
2023-01-17T22:32:41.163Z,4.35
2023-01-17T22:35:09.586Z,5.00
2023-01-17T22:37:37.540Z,5.25
2023-01-17T22:40:06.035Z,3.70
2023-01-17T22:42:34.887Z,5.60
2023-01-17T22:45:02.806Z,5.63
2023-01-17T22:47:31.088Z,6.30
2023-01-17T22:49:58.664Z,4.95
2023-01-17T22:52:26.609Z,8.55
2023-01-17T22:54:54.252Z,5.78
2023-01-17T22:57:23.275Z,5.50
2023-01-17T22:59:51.444Z,4.97
2023-01-17T23:02:19.681Z,4.93
2023-01-17T23:04:49.134Z,3.75
2023-01-17T23:09:45.154Z,3.17
2023-01-17T23:12:12.994Z,2.40
2023-01-17T23:14:59.147Z,4.32
2023-01-17T23:17:45.887Z,2.05
2023-01-17T23:20:13.489Z,1.92
2023-01-17T23:22:41.446Z,2.20
2023-01-17T23:25:14.221Z,1.40
2023-01-17T23:28:05.545Z,1.08
2023-01-17T23:30:35.916Z,0.60
2023-01-17T23:33:10.983Z,1.92
2023-01-17T23:35:42.517Z,0.93
2023-01-17T23:38:30.936Z,2.47
2023-01-17T23:41:26.892Z,3.00
2023-01-17T23:43:57.765Z,3.47
2023-01-17T23:46:26.657Z,3.60
2023-01-17T23:48:55.236Z,2.83
2023-01-17T23:51:22.941Z,2.22
2023-01-17T23:53:55.219Z,2.58
2023-01-17T23:56:24.876Z,3.45
2023-01-17T23:58:52.941Z,3.35
